createdAt,value
2022-07-29T00:01:01.951Z,37.48
2022-07-29T00:02:09.292Z,37.57
2022-07-29T00:03:17.738Z,37.64
2022-07-29T00:04:25.866Z,37.56
2022-07-29T00:05:32.136Z,37.36
2022-07-29T00:06:38.779Z,37.52
2022-07-29T00:07:45.935Z,37.60
2022-07-29T00:08:53.251Z,37.46
2022-07-29T00:10:01.334Z,37.43
2022-07-29T00:11:09.732Z,37.45
2022-07-29T00:12:21.359Z,37.37
2022-07-29T00:13:33.429Z,37.46
2022-07-29T00:14:40.606Z,37.47
2022-07-29T00:15:51.044Z,37.27
2022-07-29T00:16:58.728Z,37.39
2022-07-29T00:18:07.300Z,37.49
2022-07-29T00:19:15.490Z,37.44
2022-07-29T00:20:23.769Z,37.18
2022-07-29T00:21:31.140Z,37.10
2022-07-29T00:22:40.653Z,37.25
2022-07-29T00:23:47.685Z,37.19
2022-07-29T00:24:55.240Z,37.17
2022-07-29T00:26:05.312Z,37.14
2022-07-29T00:27:11.398Z,37.21
2022-07-29T00:28:19.479Z,37.26
2022-07-29T00:29:34.740Z,37.22
2022-07-29T00:30:46.811Z,37.12
2022-07-29T00:31:54.946Z,36.99
2022-07-29T00:33:01.596Z,37.11
2022-07-29T00:34:29.725Z,37.10
2022-07-29T00:35:48.789Z,37.08
2022-07-29T00:36:55.590Z,37.08
2022-07-29T00:38:02.249Z,37.09
2022-07-29T00:39:08.664Z,37.16
2022-07-29T00:40:17.708Z,37.22
2022-07-29T00:41:25.139Z,37.19
2022-07-29T00:42:44.497Z,37.40
2022-07-29T00:43:54.713Z,37.26
2022-07-29T00:45:04.349Z,37.28
2022-07-29T00:46:11.025Z,37.24
2022-07-29T00:47:19.029Z,37.25
2022-07-29T00:48:28.765Z,37.27
2022-07-29T00:49:35.462Z,37.04
2022-07-29T00:50:45.285Z,36.80
2022-07-29T00:51:52.761Z,36.69
2022-07-29T00:53:03.443Z,36.66
2022-07-29T00:54:14.631Z,36.56
2022-07-29T00:55:22.664Z,36.29
2022-07-29T00:56:28.534Z,36.21
2022-07-29T00:57:34.417Z,36.33
2022-07-29T00:58:41.889Z,36.26
2022-07-29T00:59:49.860Z,36.14
2022-07-29T01:00:59.651Z,36.09
2022-07-29T01:02:09.357Z,36.00
2022-07-29T01:03:16.040Z,35.67
2022-07-29T01:04:23.650Z,35.61
2022-07-29T01:05:50.001Z,35.67
2022-07-29T01:07:01.333Z,35.64
2022-07-29T01:08:10.852Z,35.43
2022-07-29T01:09:17.601Z,35.15
2022-07-29T01:10:44.341Z,34.80
2022-07-29T01:11:50.286Z,34.61
2022-07-29T01:12:57.882Z,34.52
2022-07-29T01:14:05.043Z,34.45
2022-07-29T01:15:12.293Z,34.46
2022-07-29T01:16:34.923Z,34.54
2022-07-29T01:18:09.467Z,34.53
2022-07-29T01:19:34.536Z,34.68
2022-07-29T01:21:10.590Z,34.79
2022-07-29T01:22:43.205Z,34.83
2022-07-29T01:24:02.338Z,34.88
2022-07-29T01:25:40.734Z,34.78
2022-07-29T01:27:08.822Z,34.86
2022-07-29T01:28:40.756Z,34.87
2022-07-29T01:30:01.018Z,34.91
2022-07-29T01:31:08.533Z,34.73
2022-07-29T01:32:28.722Z,34.72
2022-07-29T01:33:53.307Z,34.76
2022-07-29T01:35:12.821Z,34.86
2022-07-29T01:36:42.554Z,34.74
2022-07-29T01:38:04.128Z,34.90
2022-07-29T01:39:41.203Z,34.64
2022-07-29T01:41:17.897Z,34.40
2022-07-29T01:42:40.623Z,34.32
2022-07-29T01:44:15.171Z,34.18
2022-07-29T01:45:22.885Z,34.09
2022-07-29T01:46:35.695Z,33.80
2022-07-29T01:48:02.693Z,33.51
2022-07-29T01:49:19.391Z,33.08
2022-07-29T01:50:29.488Z,32.73
2022-07-29T01:51:38.166Z,32.37
2022-07-29T01:52:49.859Z,32.09
2022-07-29T01:54:07.062Z,31.79
2022-07-29T01:55:17.730Z,31.47
2022-07-29T01:56:25.188Z,31.26
2022-07-29T01:57:33.769Z,31.10
2022-07-29T01:58:42.584Z,30.93
2022-07-29T01:59:50.973Z,30.78
2022-07-29T02:01:01.968Z,30.65
2022-07-29T02:02:10.614Z,30.52
2022-07-29T02:03:17.935Z,30.39
2022-07-29T02:04:29.012Z,30.30
2022-07-29T02:05:36.730Z,30.16
2022-07-29T02:06:44.043Z,30.04
2022-07-29T02:07:50.919Z,29.97
2022-07-29T02:08:57.763Z,29.87
2022-07-29T02:10:06.379Z,29.77
2022-07-29T02:11:17.117Z,29.68
2022-07-29T02:12:23.926Z,29.59
2022-07-29T02:13:31.014Z,29.53
2022-07-29T02:14:46.879Z,29.47
2022-07-29T02:15:53.673Z,29.38
2022-07-29T02:17:00.034Z,29.31
2022-07-29T02:18:11.847Z,29.31
2022-07-29T02:19:21.351Z,29.28
2022-07-29T02:20:28.727Z,29.22
2022-07-29T02:21:37.376Z,29.18
2022-07-29T02:22:44.197Z,29.21
2022-07-29T02:23:51.428Z,29.27
2022-07-29T02:24:57.679Z,29.34
2022-07-29T02:26:04.213Z,29.40
2022-07-29T02:27:12.932Z,29.39
2022-07-29T02:28:18.972Z,29.39
2022-07-29T02:29:27.093Z,29.41
2022-07-29T02:30:35.793Z,29.40
2022-07-29T02:31:43.419Z,29.36
2022-07-29T02:32:54.450Z,29.33
2022-07-29T02:34:02.019Z,29.25
2022-07-29T02:35:11.123Z,29.18
2022-07-29T02:36:17.053Z,29.14
2022-07-29T02:37:25.903Z,29.06
2022-07-29T02:38:53.121Z,28.97
2022-07-29T02:40:01.501Z,28.83
2022-07-29T02:41:13.556Z,28.70
2022-07-29T02:42:19.870Z,28.57
2022-07-29T02:43:27.790Z,28.46
2022-07-29T02:44:36.277Z,28.39
2022-07-29T02:45:42.572Z,28.30
2022-07-29T02:46:54.494Z,28.22
2022-07-29T02:48:01.260Z,28.15
2022-07-29T02:49:38.104Z,28.10
2022-07-29T02:51:07.250Z,28.00
2022-07-29T02:52:40.520Z,27.91
2022-07-29T02:53:52.485Z,27.84
2022-07-29T02:55:30.211Z,27.80
2022-07-29T02:56:39.975Z,27.74
2022-07-29T02:57:54.886Z,27.68
2022-07-29T02:59:08.971Z,27.63
2022-07-29T03:00:17.207Z,27.57
2022-07-29T03:01:26.639Z,27.52
2022-07-29T03:02:34.244Z,27.46
2022-07-29T03:03:41.454Z,27.40
2022-07-29T03:04:51.259Z,27.36
2022-07-29T03:06:00.581Z,27.33
2022-07-29T03:07:08.472Z,27.28
2022-07-29T03:08:15.280Z,27.23
2022-07-29T03:09:22.675Z,27.18
2022-07-29T03:10:29.236Z,27.15
2022-07-29T03:11:41.478Z,27.10
2022-07-29T03:12:59.071Z,27.05
2022-07-29T03:14:06.472Z,26.98
2022-07-29T03:15:15.198Z,26.93
2022-07-29T03:16:22.234Z,26.88
2022-07-29T03:17:30.628Z,26.83
2022-07-29T03:18:36.519Z,26.79
2022-07-29T03:19:43.451Z,26.75
2022-07-29T03:20:50.484Z,26.72
2022-07-29T03:21:58.546Z,26.68
2022-07-29T03:23:06.849Z,26.64
2022-07-29T03:24:25.583Z,26.61
2022-07-29T03:25:31.860Z,26.57
2022-07-29T03:26:40.702Z,26.53
2022-07-29T03:27:48.185Z,26.51
2022-07-29T03:28:56.855Z,26.50
2022-07-29T03:30:03.762Z,26.47
2022-07-29T03:31:15.222Z,26.46
2022-07-29T03:32:24.001Z,26.44
2022-07-29T03:33:34.460Z,26.41
2022-07-29T03:34:41.392Z,26.39
2022-07-29T03:35:48.321Z,26.36
2022-07-29T03:36:56.581Z,26.34
2022-07-29T03:38:05.310Z,26.31
2022-07-29T03:39:14.799Z,26.28
2022-07-29T03:40:57.603Z,26.26
2022-07-29T03:42:06.751Z,26.22
2022-07-29T03:43:17.747Z,26.21
2022-07-29T03:44:25.001Z,26.20
2022-07-29T03:45:34.513Z,26.18
2022-07-29T03:46:42.895Z,26.17
2022-07-29T03:48:04.304Z,26.14
2022-07-29T03:49:13.963Z,26.12
2022-07-29T03:50:21.956Z,26.10
2022-07-29T03:51:33.396Z,26.09
2022-07-29T03:52:42.729Z,26.10
2022-07-29T03:53:52.563Z,26.09
2022-07-29T03:55:02.654Z,26.08
2022-07-29T03:56:08.897Z,26.07
2022-07-29T03:57:17.070Z,26.06
2022-07-29T03:58:23.581Z,26.06
2022-07-29T03:59:30.012Z,26.05
2022-07-29T04:00:37.749Z,26.04
2022-07-29T04:01:47.514Z,26.03
2022-07-29T04:02:56.227Z,26.02
2022-07-29T04:04:07.119Z,26.00
2022-07-29T04:05:17.396Z,25.99
2022-07-29T04:06:24.248Z,25.97
2022-07-29T04:07:32.050Z,25.97
2022-07-29T04:08:38.955Z,25.96
2022-07-29T04:09:46.555Z,25.95
2022-07-29T04:10:54.055Z,25.95
2022-07-29T04:12:03.307Z,25.94
2022-07-29T04:13:10.982Z,25.92
2022-07-29T04:14:18.231Z,25.90
2022-07-29T04:15:24.959Z,25.87
2022-07-29T04:16:30.824Z,25.86
2022-07-29T04:17:36.791Z,25.84
2022-07-29T04:18:44.591Z,25.82
2022-07-29T04:19:51.276Z,25.80
2022-07-29T04:20:57.706Z,25.78
2022-07-29T04:22:03.756Z,25.77
2022-07-29T04:23:12.963Z,25.76
2022-07-29T04:24:20.510Z,25.73
2022-07-29T04:25:26.596Z,25.72
2022-07-29T04:26:32.557Z,25.70
2022-07-29T04:27:59.525Z,25.66
2022-07-29T04:29:06.369Z,25.64
2022-07-29T04:30:12.449Z,25.61
2022-07-29T04:31:23.820Z,25.59
2022-07-29T04:32:32.990Z,25.56
2022-07-29T04:33:39.393Z,25.53
2022-07-29T04:34:48.167Z,25.51
2022-07-29T04:35:55.104Z,25.49
2022-07-29T04:37:04.622Z,25.47
2022-07-29T04:38:15.590Z,25.45
2022-07-29T04:39:24.176Z,25.43
2022-07-29T04:40:30.734Z,25.42
2022-07-29T04:41:39.793Z,25.38
2022-07-29T04:42:46.896Z,25.35
2022-07-29T04:43:56.185Z,25.33
2022-07-29T04:45:05.568Z,25.31
2022-07-29T04:46:15.150Z,25.28
2022-07-29T04:47:21.059Z,25.24
2022-07-29T04:48:29.001Z,25.21
2022-07-29T04:49:35.464Z,25.18
2022-07-29T04:50:41.429Z,25.15
2022-07-29T04:51:50.315Z,25.12
2022-07-29T04:52:56.445Z,25.08
2022-07-29T04:54:03.900Z,25.06
2022-07-29T04:55:11.722Z,25.03
2022-07-29T04:56:17.766Z,25.00
2022-07-29T04:57:24.676Z,24.97
2022-07-29T04:58:30.565Z,24.94
2022-07-29T04:59:37.540Z,24.93
2022-07-29T05:00:43.539Z,24.90
2022-07-29T05:01:49.862Z,24.88
2022-07-29T05:02:56.761Z,24.86
2022-07-29T05:04:04.406Z,24.85
2022-07-29T05:05:11.328Z,24.82
2022-07-29T05:06:17.166Z,24.82
2022-07-29T05:07:23.202Z,24.80
2022-07-29T05:08:29.252Z,24.77
2022-07-29T05:09:35.003Z,24.75
2022-07-29T05:10:42.097Z,24.74
2022-07-29T05:11:48.041Z,24.73
2022-07-29T05:12:54.089Z,24.71
2022-07-29T05:13:59.893Z,24.70
2022-07-29T05:15:07.964Z,24.69
2022-07-29T05:16:14.760Z,24.67
2022-07-29T05:17:23.538Z,24.66
2022-07-29T05:18:31.307Z,24.64
2022-07-29T05:19:39.945Z,24.63
2022-07-29T05:20:45.887Z,24.62
2022-07-29T05:21:51.889Z,24.60
2022-07-29T05:23:01.530Z,24.57
2022-07-29T05:24:11.126Z,24.56
2022-07-29T05:25:20.540Z,24.54
2022-07-29T05:26:27.275Z,24.52
2022-07-29T05:27:35.986Z,24.50
2022-07-29T05:28:43.686Z,24.47
2022-07-29T05:29:49.906Z,24.44
2022-07-29T05:30:57.923Z,24.42
2022-07-29T05:32:04.395Z,24.40
2022-07-29T05:33:35.834Z,24.37
2022-07-29T05:34:50.403Z,24.34
2022-07-29T05:36:00.810Z,24.30
2022-07-29T05:37:08.170Z,24.27
2022-07-29T05:38:15.408Z,24.22
2022-07-29T05:39:47.252Z,24.21
2022-07-29T05:40:53.979Z,24.16
2022-07-29T05:42:03.358Z,24.14
2022-07-29T05:43:10.554Z,24.11
2022-07-29T05:44:19.169Z,24.10
2022-07-29T05:45:27.761Z,24.06
2022-07-29T05:46:34.219Z,24.01
2022-07-29T05:47:41.579Z,23.98
2022-07-29T05:48:47.948Z,23.96
2022-07-29T05:49:55.892Z,23.92
2022-07-29T05:51:02.508Z,23.89
2022-07-29T05:52:12.663Z,23.85
2022-07-29T05:53:20.839Z,23.81
2022-07-29T05:54:27.814Z,23.78
2022-07-29T05:55:34.381Z,23.74
2022-07-29T05:56:41.534Z,23.70
2022-07-29T05:57:52.265Z,23.65
2022-07-29T05:58:59.455Z,23.61
2022-07-29T06:00:08.632Z,23.57
2022-07-29T06:01:25.502Z,23.53
2022-07-29T06:02:32.132Z,23.48
2022-07-29T06:03:40.086Z,23.45
2022-07-29T06:04:47.193Z,23.41
2022-07-29T06:05:55.134Z,23.38
2022-07-29T06:07:04.453Z,23.35
2022-07-29T06:08:14.601Z,23.33
2022-07-29T06:09:24.890Z,23.30
2022-07-29T06:10:31.543Z,23.26
2022-07-29T06:11:38.193Z,23.22
2022-07-29T06:12:46.955Z,23.18
2022-07-29T06:13:55.916Z,23.15
2022-07-29T06:15:02.371Z,23.13
2022-07-29T06:16:08.948Z,23.11
2022-07-29T06:17:15.908Z,23.08
2022-07-29T06:18:25.227Z,23.05
2022-07-29T06:19:31.158Z,23.01
2022-07-29T06:20:38.526Z,22.96
2022-07-29T06:21:46.240Z,22.92
2022-07-29T06:22:52.664Z,22.89
2022-07-29T06:24:01.637Z,22.85
2022-07-29T06:25:08.099Z,22.82
2022-07-29T06:26:14.138Z,22.79
2022-07-29T06:27:20.970Z,22.76
2022-07-29T06:28:27.825Z,22.72
2022-07-29T06:29:36.102Z,22.70
2022-07-29T06:30:43.551Z,22.68
2022-07-29T06:31:50.384Z,22.64
2022-07-29T06:32:58.224Z,22.62
2022-07-29T06:34:06.497Z,22.60
2022-07-29T06:35:39.214Z,22.58
2022-07-29T06:36:41.735Z,22.55
2022-07-29T06:37:50.352Z,22.53
2022-07-29T06:39:03.324Z,22.49
2022-07-29T06:40:31.877Z,22.45
2022-07-29T06:41:39.900Z,22.41
2022-07-29T06:42:50.269Z,22.37
2022-07-29T06:43:57.872Z,22.34
2022-07-29T06:45:09.211Z,22.30
2022-07-29T06:46:22.806Z,22.27
2022-07-29T06:47:29.837Z,22.23
2022-07-29T06:48:37.697Z,22.20
2022-07-29T06:49:47.076Z,22.18
2022-07-29T06:50:53.563Z,22.14
2022-07-29T06:52:04.060Z,22.11
2022-07-29T06:53:13.360Z,22.10
2022-07-29T06:54:20.365Z,22.09
2022-07-29T06:55:28.877Z,22.07
2022-07-29T06:56:40.425Z,22.05
2022-07-29T06:57:48.897Z,22.03
2022-07-29T06:59:01.615Z,22.00
2022-07-29T07:00:10.747Z,21.99
2022-07-29T07:01:18.272Z,21.96
2022-07-29T07:02:24.828Z,21.93
2022-07-29T07:03:30.814Z,21.90
2022-07-29T07:04:38.058Z,21.87
2022-07-29T07:05:45.784Z,21.86
2022-07-29T07:06:52.973Z,21.83
2022-07-29T07:07:59.408Z,21.81
2022-07-29T07:09:05.672Z,21.79
2022-07-29T07:10:14.330Z,21.77
2022-07-29T07:11:20.237Z,21.75
2022-07-29T07:12:29.335Z,21.73
2022-07-29T07:13:39.314Z,21.71
2022-07-29T07:14:46.016Z,21.69
2022-07-29T07:15:56.010Z,21.67
2022-07-29T07:17:06.461Z,21.65
2022-07-29T07:18:12.956Z,21.62
2022-07-29T07:19:20.856Z,21.60
2022-07-29T07:20:28.197Z,21.57
2022-07-29T07:21:36.977Z,21.54
2022-07-29T07:22:43.897Z,21.52
2022-07-29T07:23:51.743Z,21.50
2022-07-29T07:24:57.792Z,21.47
2022-07-29T07:26:07.472Z,21.45
2022-07-29T07:27:17.119Z,21.41
2022-07-29T07:28:25.061Z,21.38
2022-07-29T07:29:31.605Z,21.35
2022-07-29T07:30:37.911Z,21.32
2022-07-29T07:31:45.955Z,21.30
2022-07-29T07:32:54.026Z,21.30
2022-07-29T07:34:02.587Z,21.30
2022-07-29T07:35:11.684Z,21.29
2022-07-29T07:36:19.110Z,21.28
2022-07-29T07:37:26.827Z,21.27
2022-07-29T07:38:35.212Z,21.26
2022-07-29T07:39:44.135Z,21.25
2022-07-29T07:40:51.213Z,21.25
2022-07-29T07:42:00.585Z,21.25
2022-07-29T07:43:10.383Z,21.24
2022-07-29T07:44:20.521Z,21.24
2022-07-29T07:45:26.933Z,21.24
2022-07-29T07:46:35.756Z,21.23
2022-07-29T07:47:45.185Z,21.21
2022-07-29T07:48:52.230Z,21.19
2022-07-29T07:49:59.030Z,21.17
2022-07-29T07:51:05.775Z,21.15
2022-07-29T07:52:13.815Z,21.13
2022-07-29T07:53:19.618Z,21.12
2022-07-29T07:54:28.543Z,21.10
2022-07-29T07:56:00.365Z,21.06
2022-07-29T07:57:06.419Z,20.98
2022-07-29T07:58:13.917Z,20.94
2022-07-29T07:59:20.755Z,20.92
2022-07-29T08:00:28.510Z,20.89
2022-07-29T08:01:55.041Z,20.87
2022-07-29T08:03:04.953Z,20.85
2022-07-29T08:04:28.371Z,20.81
2022-07-29T08:05:39.484Z,20.79
2022-07-29T08:06:45.450Z,20.77
2022-07-29T08:07:54.433Z,20.74
2022-07-29T08:09:26.816Z,20.70
2022-07-29T08:10:48.170Z,20.63
2022-07-29T08:11:58.876Z,20.57
2022-07-29T08:13:10.191Z,20.54
2022-07-29T08:14:20.474Z,20.51
2022-07-29T08:15:27.294Z,20.47
2022-07-29T08:16:36.182Z,20.44
2022-07-29T08:17:43.091Z,20.41
2022-07-29T08:18:49.561Z,20.36
2022-07-29T08:19:55.918Z,20.34
2022-07-29T08:21:02.654Z,20.32
2022-07-29T08:22:08.860Z,20.30
2022-07-29T08:23:16.062Z,20.29
2022-07-29T08:24:41.206Z,20.29
2022-07-29T08:25:50.939Z,20.29
2022-07-29T08:26:58.184Z,20.29
2022-07-29T08:28:06.267Z,20.28
2022-07-29T08:29:18.419Z,20.28
2022-07-29T08:30:28.830Z,20.27
2022-07-29T08:31:38.112Z,20.28
2022-07-29T08:32:53.686Z,20.28
2022-07-29T08:34:04.078Z,20.29
2022-07-29T08:35:10.915Z,20.30
2022-07-29T08:36:19.664Z,20.31
2022-07-29T08:37:26.974Z,20.31
2022-07-29T08:38:35.439Z,20.33
2022-07-29T08:39:41.225Z,20.34
2022-07-29T08:40:48.090Z,20.35
2022-07-29T08:42:00.210Z,20.35
2022-07-29T08:43:08.694Z,20.36
2022-07-29T08:44:22.264Z,20.34
2022-07-29T08:45:28.813Z,20.32
2022-07-29T08:46:34.979Z,20.30
2022-07-29T08:47:43.432Z,20.28
2022-07-29T08:48:50.897Z,20.27
2022-07-29T08:49:59.845Z,20.26
2022-07-29T08:51:05.938Z,20.24
2022-07-29T08:52:14.139Z,20.23
2022-07-29T08:53:20.968Z,20.22
2022-07-29T08:54:29.497Z,20.22
2022-07-29T08:55:36.596Z,20.21
2022-07-29T08:56:42.714Z,20.21
2022-07-29T08:57:54.158Z,20.22
2022-07-29T08:59:06.392Z,20.23
2022-07-29T09:00:13.638Z,20.24
2022-07-29T09:01:23.522Z,20.24
2022-07-29T09:02:45.093Z,20.24
2022-07-29T09:03:53.014Z,20.25
2022-07-29T09:05:00.704Z,20.24
2022-07-29T09:06:07.085Z,20.21
2022-07-29T09:07:19.488Z,20.18
2022-07-29T09:08:28.011Z,20.15
2022-07-29T09:09:36.172Z,20.12
2022-07-29T09:10:44.128Z,20.09
2022-07-29T09:11:50.034Z,20.06
2022-07-29T09:12:57.782Z,20.04
2022-07-29T09:14:04.063Z,20.02
2022-07-29T09:15:10.323Z,20.01
2022-07-29T09:16:43.894Z,20.00
2022-07-29T09:17:50.818Z,19.99
2022-07-29T09:18:58.105Z,19.97
2022-07-29T09:20:24.936Z,19.96
2022-07-29T09:21:50.526Z,19.92
2022-07-29T09:22:57.332Z,19.87
2022-07-29T09:24:13.621Z,19.83
2022-07-29T09:25:36.229Z,19.81
2022-07-29T09:26:46.236Z,19.77
2022-07-29T09:27:52.701Z,19.75
2022-07-29T09:28:58.628Z,19.72
2022-07-29T09:30:08.443Z,19.70
2022-07-29T09:31:15.061Z,19.69
2022-07-29T09:32:21.246Z,19.67
2022-07-29T09:33:40.942Z,19.68
2022-07-29T09:34:48.034Z,19.65
2022-07-29T09:36:10.302Z,19.63
2022-07-29T09:37:31.381Z,19.61
2022-07-29T09:38:38.486Z,19.58
2022-07-29T09:39:48.055Z,19.55
2022-07-29T09:41:06.084Z,19.54
2022-07-29T09:42:14.245Z,19.52
2022-07-29T09:43:22.812Z,19.51
2022-07-29T09:44:43.782Z,19.51
2022-07-29T09:45:50.753Z,19.51
2022-07-29T09:47:09.867Z,19.51
2022-07-29T09:48:19.907Z,19.50
2022-07-29T09:49:25.791Z,19.49
2022-07-29T09:50:40.316Z,19.48
2022-07-29T09:51:46.953Z,19.46
2022-07-29T09:52:55.146Z,19.44
2022-07-29T09:54:01.984Z,19.44
2022-07-29T09:55:09.549Z,19.43
2022-07-29T09:56:15.787Z,19.43
2022-07-29T09:57:30.816Z,19.42
2022-07-29T09:58:41.660Z,19.42
2022-07-29T10:00:03.531Z,19.43
2022-07-29T10:01:19.754Z,19.45
2022-07-29T10:02:29.170Z,19.47
2022-07-29T10:03:34.952Z,19.49
2022-07-29T10:04:45.361Z,19.50
2022-07-29T10:06:12.346Z,19.52
2022-07-29T10:07:21.308Z,19.54
2022-07-29T10:08:29.585Z,19.57
2022-07-29T10:09:36.729Z,19.59
2022-07-29T10:10:44.016Z,19.61
2022-07-29T10:12:17.901Z,19.63
2022-07-29T10:13:24.357Z,19.63
2022-07-29T10:14:30.265Z,19.65
2022-07-29T10:15:42.754Z,19.66
2022-07-29T10:16:51.905Z,19.68
2022-07-29T10:17:58.652Z,19.69
2022-07-29T10:19:06.220Z,19.70
2022-07-29T10:20:16.143Z,19.70
2022-07-29T10:21:36.224Z,19.70
2022-07-29T10:22:52.884Z,19.69
2022-07-29T10:24:01.839Z,19.68
2022-07-29T10:25:08.061Z,19.67
2022-07-29T10:26:13.945Z,19.66
2022-07-29T10:27:20.446Z,19.67
2022-07-29T10:28:26.891Z,19.68
2022-07-29T10:29:35.784Z,19.68
2022-07-29T10:30:42.689Z,19.69
2022-07-29T10:31:58.947Z,19.70
2022-07-29T10:33:17.745Z,19.70
2022-07-29T10:34:31.371Z,19.70
2022-07-29T10:35:43.176Z,19.69
2022-07-29T10:37:02.596Z,19.69
2022-07-29T10:38:28.005Z,19.66
2022-07-29T10:39:58.284Z,19.64
2022-07-29T10:41:43.888Z,19.62
2022-07-29T10:42:54.951Z,19.61
2022-07-29T10:44:23.118Z,19.59
2022-07-29T10:45:29.913Z,19.58
2022-07-29T10:46:41.585Z,19.57
2022-07-29T10:47:48.361Z,19.56
2022-07-29T10:49:15.285Z,19.56
2022-07-29T10:50:21.732Z,19.54
2022-07-29T10:51:27.867Z,19.54
2022-07-29T10:52:52.584Z,19.53
2022-07-29T10:54:01.257Z,19.51
2022-07-29T10:55:07.708Z,19.51
2022-07-29T10:56:28.205Z,19.51
2022-07-29T10:57:54.054Z,19.52
2022-07-29T10:59:36.100Z,19.53
2022-07-29T11:00:43.314Z,19.54
2022-07-29T11:01:53.614Z,19.54
2022-07-29T11:03:01.636Z,19.54
2022-07-29T11:04:11.416Z,19.53
2022-07-29T11:05:21.734Z,19.52
2022-07-29T11:06:31.293Z,19.50
2022-07-29T11:07:42.632Z,19.48
2022-07-29T11:09:25.666Z,19.47
2022-07-29T11:10:42.685Z,19.45
2022-07-29T11:11:52.440Z,19.45
2022-07-29T11:13:03.821Z,19.46
2022-07-29T11:14:14.579Z,19.45
2022-07-29T11:15:28.461Z,19.44
2022-07-29T11:17:06.917Z,19.43
2022-07-29T11:18:15.062Z,19.41
2022-07-29T11:19:30.836Z,19.39
2022-07-29T11:20:49.906Z,19.37
2022-07-29T11:22:00.437Z,19.36
2022-07-29T11:23:27.348Z,19.36
2022-07-29T11:24:36.100Z,19.35
2022-07-29T11:27:22.615Z,19.34
2022-07-29T11:28:28.960Z,19.34
2022-07-29T11:29:39.896Z,19.34
2022-07-29T11:30:54.324Z,19.34
2022-07-29T11:33:56.147Z,19.32
2022-07-29T11:35:37.354Z,19.31
2022-07-29T11:37:17.999Z,19.31
2022-07-29T11:38:33.143Z,19.30
2022-07-29T11:39:41.029Z,19.31
2022-07-29T11:41:20.990Z,19.30
2022-07-29T11:42:28.151Z,19.29
2022-07-29T11:43:55.237Z,19.28
2022-07-29T11:45:41.440Z,19.27
2022-07-29T11:46:54.501Z,19.26
2022-07-29T11:49:34.700Z,19.25
2022-07-29T11:50:45.621Z,19.26
2022-07-29T11:51:56.708Z,19.28
2022-07-29T11:53:08.817Z,19.28
2022-07-29T11:54:16.036Z,19.28
2022-07-29T11:55:32.613Z,19.28
2022-07-29T11:56:42.466Z,19.28
2022-07-29T11:58:03.908Z,19.27
2022-07-29T11:59:15.304Z,19.28
2022-07-29T12:00:39.244Z,19.28
2022-07-29T12:02:18.558Z,19.28
2022-07-29T12:03:37.200Z,19.28
2022-07-29T12:04:57.843Z,19.28
2022-07-29T12:06:07.952Z,19.26
2022-07-29T12:07:01.471Z,19.34
2022-07-29T12:07:02.774Z,19.35
2022-07-29T12:07:18.826Z,19.21
2022-07-29T12:08:29.462Z,19.15
2022-07-29T12:09:40.329Z,19.10
2022-07-29T12:10:52.820Z,19.04
2022-07-29T12:12:05.113Z,18.98
2022-07-29T12:13:17.467Z,18.94
2022-07-29T12:14:33.384Z,18.92
2022-07-29T12:15:46.260Z,18.89
2022-07-29T12:16:54.783Z,18.86
2022-07-29T12:18:18.340Z,18.83
2022-07-29T12:19:26.820Z,18.79
2022-07-29T12:20:32.873Z,18.76
2022-07-29T12:21:56.966Z,18.74
2022-07-29T12:23:14.102Z,18.69
2022-07-29T12:24:26.731Z,18.64
2022-07-29T12:25:38.625Z,18.61
2022-07-29T12:26:59.451Z,18.59
2022-07-29T12:28:09.363Z,18.57
2022-07-29T12:29:34.516Z,18.57
2022-07-29T12:30:51.718Z,18.56
2022-07-29T12:32:01.680Z,18.56
2022-07-29T12:33:23.274Z,18.54
2022-07-29T12:34:30.102Z,18.53
2022-07-29T12:35:35.924Z,18.53
2022-07-29T12:36:45.765Z,18.54
2022-07-29T12:37:54.440Z,18.55
2022-07-29T12:39:05.653Z,18.56
2022-07-29T12:40:14.482Z,18.57
2022-07-29T12:41:20.470Z,18.59
2022-07-29T12:42:26.964Z,18.61
2022-07-29T12:43:37.641Z,18.63
2022-07-29T12:44:50.941Z,18.64
2022-07-29T12:46:01.699Z,18.65
2022-07-29T12:47:09.135Z,18.64
2022-07-29T12:48:15.375Z,18.64
2022-07-29T12:49:28.709Z,18.64
2022-07-29T12:50:34.901Z,18.64
2022-07-29T12:51:44.016Z,18.64
2022-07-29T12:52:51.252Z,18.65
2022-07-29T12:54:15.097Z,18.65
2022-07-29T12:55:53.172Z,18.66
2022-07-29T12:57:05.694Z,18.65
2022-07-29T12:58:11.599Z,18.63
2022-07-29T12:59:25.568Z,18.63
2022-07-29T13:00:32.199Z,18.63
2022-07-29T13:01:40.740Z,18.62
2022-07-29T13:02:47.275Z,18.60
2022-07-29T13:04:03.692Z,18.59
2022-07-29T13:05:11.785Z,18.57
2022-07-29T13:06:49.708Z,18.56
2022-07-29T13:08:21.895Z,18.54
2022-07-29T13:09:45.560Z,18.51
2022-07-29T13:10:52.978Z,18.48
2022-07-29T13:11:59.421Z,18.46
2022-07-29T13:13:12.216Z,18.45
2022-07-29T13:14:35.284Z,18.46
2022-07-29T13:15:44.229Z,18.46
2022-07-29T13:17:14.646Z,18.46
2022-07-29T13:18:36.910Z,18.48
2022-07-29T13:19:54.054Z,18.49
2022-07-29T13:21:12.658Z,18.48
2022-07-29T13:22:25.050Z,18.48
2022-07-29T13:23:32.267Z,18.49
2022-07-29T13:24:56.498Z,18.49
2022-07-29T13:26:11.353Z,18.50
2022-07-29T13:27:21.553Z,18.53
2022-07-29T13:28:27.397Z,18.57
2022-07-29T13:29:34.295Z,18.59
2022-07-29T13:30:44.610Z,18.62
2022-07-29T13:31:54.540Z,18.64
2022-07-29T13:33:03.049Z,18.66
2022-07-29T13:34:10.108Z,18.68
2022-07-29T13:35:16.426Z,18.69
2022-07-29T13:36:24.968Z,18.71
2022-07-29T13:37:36.505Z,18.71
2022-07-29T13:38:43.340Z,18.72
2022-07-29T13:39:53.347Z,18.76
2022-07-29T13:41:01.918Z,18.82
2022-07-29T13:42:11.487Z,18.87
2022-07-29T13:43:17.489Z,18.89
2022-07-29T13:44:26.144Z,18.91
2022-07-29T13:45:31.878Z,18.92
2022-07-29T13:46:40.028Z,18.92
2022-07-29T13:47:50.269Z,18.91
2022-07-29T13:48:58.903Z,18.93
2022-07-29T13:50:10.925Z,18.95
2022-07-29T13:51:18.924Z,18.95
2022-07-29T13:52:27.928Z,18.94
2022-07-29T13:53:37.500Z,18.93
2022-07-29T13:54:46.031Z,18.94
2022-07-29T13:55:53.479Z,18.94
2022-07-29T13:57:01.173Z,18.94
2022-07-29T13:58:09.018Z,18.95
2022-07-29T13:59:16.394Z,18.95
2022-07-29T14:00:25.653Z,18.96
2022-07-29T14:01:36.555Z,18.99
2022-07-29T14:02:43.258Z,19.08
2022-07-29T14:03:51.606Z,19.17
2022-07-29T14:05:01.146Z,19.22
2022-07-29T14:06:13.759Z,19.24
2022-07-29T14:07:19.952Z,19.26
2022-07-29T14:08:29.300Z,19.28
2022-07-29T14:09:41.505Z,19.29
2022-07-29T14:10:49.539Z,19.30
2022-07-29T14:12:02.119Z,19.32
2022-07-29T14:13:24.257Z,19.33
2022-07-29T14:14:38.085Z,19.36
2022-07-29T14:15:46.080Z,19.38
2022-07-29T14:16:52.451Z,19.38
2022-07-29T14:18:02.309Z,19.39
2022-07-29T14:19:09.998Z,19.41
2022-07-29T14:20:20.081Z,19.43
2022-07-29T14:21:28.214Z,19.45
2022-07-29T14:22:42.359Z,19.45
2022-07-29T14:23:56.226Z,19.47
2022-07-29T14:25:15.110Z,19.52
2022-07-29T14:26:25.591Z,19.60
2022-07-29T14:27:37.451Z,19.66
2022-07-29T14:28:46.082Z,19.72
2022-07-29T14:29:53.718Z,19.79
2022-07-29T14:31:02.005Z,19.83
2022-07-29T14:32:09.301Z,19.89
2022-07-29T14:33:16.884Z,19.98
2022-07-29T14:34:26.268Z,20.08
2022-07-29T14:35:32.406Z,20.17
2022-07-29T14:36:38.951Z,20.32
2022-07-29T14:37:48.912Z,20.47
2022-07-29T14:38:55.427Z,20.60
2022-07-29T14:40:05.934Z,20.67
2022-07-29T14:41:14.710Z,20.70
2022-07-29T14:42:22.260Z,20.73
2022-07-29T14:43:29.338Z,20.76
2022-07-29T14:44:36.387Z,20.76
2022-07-29T14:45:43.868Z,20.78
2022-07-29T14:46:51.141Z,20.80
2022-07-29T14:47:58.750Z,20.85
2022-07-29T14:49:06.539Z,20.90
2022-07-29T14:50:23.337Z,20.94
2022-07-29T14:51:39.158Z,20.99
2022-07-29T14:52:46.445Z,21.02
2022-07-29T14:53:53.904Z,21.06
2022-07-29T14:55:01.950Z,21.13
2022-07-29T14:56:34.961Z,21.24
2022-07-29T14:57:39.447Z,21.36
2022-07-29T14:58:51.713Z,21.46
2022-07-29T14:59:59.406Z,21.63
2022-07-29T15:01:05.352Z,21.83
2022-07-29T15:02:13.406Z,22.05
2022-07-29T15:03:23.776Z,22.29
2022-07-29T15:04:31.284Z,22.59
2022-07-29T15:05:37.215Z,22.95
2022-07-29T15:06:43.025Z,23.32
2022-07-29T15:07:49.400Z,23.56
2022-07-29T15:08:58.068Z,23.67
2022-07-29T15:10:08.516Z,23.78
2022-07-29T15:11:17.518Z,23.80
2022-07-29T15:12:28.107Z,23.76
2022-07-29T15:13:35.718Z,23.70
2022-07-29T15:14:45.786Z,23.69
2022-07-29T15:16:00.025Z,23.69
2022-07-29T15:17:09.109Z,23.75
2022-07-29T15:18:25.356Z,23.75
2022-07-29T15:19:35.874Z,23.74